Poplar Springs, Mississippi
Current Conditions -  °F | °C
As of 1:53 AM on Sunday 21 Dec 2014 (Local Time) from KGWO Reporting Station
Clear Clear  
Wind Chill: 37°   Ceiling: Unl
Heat Index: 37°   Visibility: 10mi
Dew Point: 33°   Wind: 3mph
Humidity: 86%   Direction: 40°NE
Pressure: 30.21"   Gusts: NA
Location:  33.3807°N, 89.5554°W
Report Text: KGWO 210753Z AUTO 04003KT 10SM CLR 03/01 A3021 RMK AO2 SLP228 T00280006
Loading
Personal Weather Stations






























Interactive Weather Map New forecast layout! Learn more

10-Day Weather Forecast

Advertisements
Track Severe Weather on mobile